ETAD

Spangdahlem Air Base

Airport
ICAO code
ETAD
Summary
ICAO Region
EUR
ICAO Territory
Location

Spangdahlem, Rhineland-Palatinate,

Coordinates
49° 58' 29" N , 6° 41' 57" E
Metar
ETAD 142057Z AUTO 19008KT 9999 FEW009 SCT047 SCT070 16/14 A2969 RMK AO2 SLP044 $

Description

Spangdahlem Air Base is a United States Air Force base located near the small German town of Spangdahlem, approximately 30 km NNE of the city of Trier, Rhineland-Palatinate.

Runways

Designator Length Width Surface Rops
5/23 3050 45 ASP No/No

Airport map

Aerial View

SKYbrary Partners:

Safety knowledge contributed by: